Cochabamba, Bolivia

3:08 PM BOT en Noviembre 28, 2014 (GMT -0400)
Jorge Wilsterman | Change Station
CLOSE
Current Station
Aeropuerto
Location: Cochabamba,
Altura: 8360 ft
Estaciones meteorológicas cercanas

Alt 8360 ft 17.42 °S, 66.18 °W | Updated 8 minutes ago

Mostly Cloudy
Muy nublado
75 ° F
Sensación térmica 75 ° F
N
7
Viento Variable Viento desde SO

Hoy
Alta -- | Baja -- ° F
--% Posibilidad de precipitaciones
Ayer
Alta -- | Baja -- ° F
Precip. -- pul
5:40 AM 6:44 PM
Creciente, 43% visible
Presión 30.15 pul
Visibilidad 6.2 Millas
Nubes Nubes dispersas 2700 ft
Baja 3000 ft
Muy nublado 20000 ft
Punto de rocío 46 ° F
Humedad 36%
Precipitaciones 0.00 pul
Espesor de la nieve No disponible.
UV 6 de una escala de 12
Polen No disponible.
Calidad del aire No disponible.
Flu Activity No disponible.
METAR SLCB 281900Z 23006KT 9999 SCT027 FEW030CB BKN200 24/08 Q1021

More Conditions Fewer Conditions

Presión 30.15 pul
Visibilidad 6.2 Millas
Nubes Nubes dispersas 2700 ft
Baja 3000 ft
Muy nublado 20000 ft
Punto de rocío 46 ° F
Humedad 36%
Precipitaciones 0.00 pul
Espesor de la nieve No disponible.
UV 6 de una escala de 12
Polen No disponible.
Calidad del aire No disponible.
Flu Activity No disponible.
METAR SLCB 281900Z 23006KT 9999 SCT027 FEW030CB BKN200 24/08 Q1021

More Conditions Fewer Conditions

10-Day Weather Forecast

Almanac

Astronomía

Nov. 28, 2014 Salida Puesta
Hora real
Crepúsculo civil
Crepúsculo náutico
Crepúsculo astronómico
Luna
Horas de luz
Horas de luz
Tomorrow will be .
, % of the Moon is Illuminated

Extremos de hoy

Máximos del país Bajas del país

Community

WunderPhotos

Upload Photos

1,774,261 ¡fotos cargadas!

WunderBlogs® & News

Nearby

Calidad del aire

  Calidad del aire Índice AQ Contaminante
Not available.

Grosos de nieve

Estación Profundido Altura

Actividad de terremotos

Ciudad Distance Mag. Tiempo y dato
Magnitud mínima muestra es 2,5.

Temperaturas de aguas costeras

Lugar Temperatura

Estaciones meteorológicas cercanas